• Join FlightAware (Why Join?)
  • Login
  • US Flag 
06:20PM EST


 

Airport Tracker/Info


-or-


 

Live Flight TrackerFlight Track Log ✈ C-GMYM ✈ 18-Aug-2013 ✈ KMDW - CYHM

Flight Track Log - Related Links

Times and Time Zones

All times are in EDT time to prevent confusion due to time zone crossing. See the C-GMYM flight status page for this flight to view local times or setup timezone preferences in your user account.

Time Position Orientation Groundspeed Altitude Reporting Facility
EDT Latitude Longitude Course Direction KTS MPH feet Rate Location/Type
10:29AM 41.8000 -87.7167 90° East 111 128 2,300  Level Chicago TRACON
10:30AM 41.8000 -87.6833 90° East 119 137 3,000 900 Climbing Chicago TRACON
10:31AM 41.7833 -87.6333 114° Southeast 121 139 4,100 900 Climbing Chicago TRACON
10:32AM 41.7500 -87.6000 143° Southeast 122 140 4,900 480 Climbing Chicago TRACON
10:33AM 41.7333 -87.5500 114° Southeast 154 177 5,100 120 Climbing Chicago TRACON
10:34AM 41.7256 -87.5300 118° Southeast 135 155 5,100  Level Chicago Center
10:35AM 41.7003 -87.4783 123° Southeast 151 174 5,100  Level Chicago Center
10:36AM 41.6736 -87.4244 124° Southeast 166 191 5,100  Level Chicago Center
10:37AM 41.6489 -87.3731 123° Southeast 166 191 5,100  Level Chicago Center
10:38AM 41.6250 -87.3206 121° Southeast 165 190 5,100  Level Chicago Center
10:39AM 41.6178 -87.2497 98° East 162 186 5,100  Level Chicago Center
10:40AM 41.6189 -87.1894 89° East 163 188 5,100 -60 Level Chicago Center
10:41AM 41.6181 -87.1286 91° East 164 189 5,000 -60 Descending Chicago Center
10:42AM 41.6183 -87.0669 90° East 165 190 5,000  Level Chicago Center
10:43AM 41.6322 -87.0081 72° East 166 191 5,000  Level Chicago Center
10:44AM 41.6511 -86.9389 70° East 167 192 5,000  Level Chicago Center
10:45AM 41.6644 -86.8803 73° East 165 190 5,000  Level Chicago Center
10:46AM 41.6800 -86.8225 70° East 166 191 5,000  Level Chicago Center
10:47AM 41.6931 -86.7633 74° East 166 191 5,000  Level Chicago Center
10:48AM 41.7111 -86.7003 69° East 165 190 5,000  Level Chicago Center
10:49AM 41.7269 -86.6414 70° East 168 193 5,000  Level Chicago Center
10:50AM 41.7406 -86.5825 73° East 166 191 5,000  Level Chicago Center
10:51AM 41.7561 -86.5258 70° East 163 188 5,000  Level Chicago Center
10:52AM 41.7711 -86.4667 71° East 166 191 5,000  Level Chicago Center
10:53AM 41.7856 -86.4064 72° East 169 194 5,000  Level Chicago Center
10:54AM 41.8039 -86.3369 70° East 167 192 5,000  Level Chicago Center
10:55AM 41.8189 -86.2783 71° East 165 190 5,000  Level Chicago Center
10:56AM 41.8331 -86.2194 72° East 166 191 5,000  Level Chicago Center
10:58AM 41.8483 -86.1594 71° East 169 194 5,000  Level Chicago Center
10:59AM 41.8633 -86.1017 71° East 166 191 5,000  Level Chicago Center
11:00AM 41.8778 -86.0428 72° East 166 191 5,000  Level Chicago Center
11:01AM 41.8947 -85.9728 72° East 165 190 5,000  Level Chicago Center
11:02AM 41.9100 -85.9139 71° East 167 192 5,000  Level Chicago Center
11:03AM 41.9239 -85.8556 72° East 165 190 5,000  Level Chicago Center
11:04AM 41.9386 -85.7986 71° East 163 188 5,000  Level Chicago Center
11:05AM 41.9533 -85.7397 71° East 164 189 5,000  Level Chicago Center
11:06AM 41.9678 -85.6822 71° East 164 189 5,000  Level Chicago Center
11:07AM 41.9817 -85.6228 73° East 165 190 5,000  Level Chicago Center
11:08AM 41.9986 -85.5528 72° East 165 190 5,000  Level Chicago Center
11:09AM 42.0133 -85.4944 71° East 164 189 5,000  Level Chicago Center
11:10AM 42.0267 -85.4356 73° East 164 189 5,000  Level Chicago Center
11:11AM 42.0411 -85.3772 72° East 165 190 5,000  Level Chicago Center
11:12AM 42.0558 -85.3186 71° East 165 190 5,000  Level Chicago Center
11:13AM 42.0703 -85.2547 73° East 165 190 5,000  Level Chicago Center
11:14AM 42.0836 -85.2019 71° East 164 189 5,000  Level Chicago Center
11:15AM 42.0972 -85.1433 73° East 164 189 5,000  Level Chicago Center
11:16AM 42.1147 -85.0731 71° East 164 189 5,000  Level Chicago Center
11:17AM 42.1281 -85.0147 73° East 166 191 5,000  Level Chicago Center
11:18AM 42.1428 -84.9547 72° East 166 191 5,000  Level Chicago Center
11:19AM 42.1578 -84.8986 70° East 162 186 5,000  Level Chicago Center
11:20AM 42.1706 -84.8383 74° East 164 189 5,000  Level Chicago Center
11:21AM 42.1856 -84.7811 71° East 163 188 5,000  Level Chicago Center
11:22AM 42.2025 -84.7100 72° East 164 189 5,000  Level Chicago Center
11:23AM 42.2144 -84.6492 75° East 166 191 5,000  Level Chicago Center
11:24AM 42.2297 -84.5903 71° East 167 192 5,000  Level Chicago Center
11:25AM 42.2447 -84.5322 71° East 165 190 5,000  Level Chicago Center
11:26AM 42.2586 -84.4736 72° East 164 189 5,000  Level Chicago Center
11:27AM 42.2703 -84.4147 75° East 164 189 5,000  Level Chicago Center
11:29AM 42.2867 -84.3278 76° East 161 185 5,000  Level Cleveland Center
11:30AM 42.3072 -84.2728 63° Northeast 163 188 5,000  Level Cleveland Center
11:31AM 42.3233 -84.2203 67° East 163 188 5,100  Climbing Cleveland Center
11:32AM 42.3464 -84.1569 64° Northeast 167 192 5,100  Level Cleveland Center
11:33AM 42.3586 -84.0986 74° East 163 188 5,100  Level Cleveland Center
11:34AM 42.3728 -84.0403 72° East 165 190 5,100  Level Cleveland Center
11:35AM 42.3875 -83.9708 74° East 167 192 5,100  Level Cleveland Center
11:36AM 42.3969 -83.9236 75° East 164 189 5,100  Level Cleveland Center
11:37AM 42.4175 -83.8628 65° Northeast 165 190 5,100  Level Cleveland Center
11:38AM 42.4342 -83.7961 71° East 165 190 5,100  Level Cleveland Center
11:39AM 42.4481 -83.7406 71° East 167 192 5,100  Level Cleveland Center
11:40AM 42.4625 -83.6708 74° East 166 191 5,100  Level Cleveland Center
11:41AM 42.4786 -83.6097 70° East 164 189 5,100  Level Cleveland Center
11:42AM 42.4906 -83.5539 74° East 161 185 5,100  Level Cleveland Center
11:43AM 42.5067 -83.4956 69° East 167 192 5,100  Level Cleveland Center
11:44AM 42.5186 -83.4369 75° East 163 188 5,100  Level Cleveland Center
11:45AM 42.5369 -83.3672 70° East 167 192 5,100  Level Cleveland Center
11:46AM 42.5531 -83.3031 71° East 166 191 5,100  Level Cleveland Center
11:47AM 42.5647 -83.2500 73° East 164 189 5,100  Level Cleveland Center
11:48AM 42.5786 -83.1858 74° East 165 190 5,100  Level Cleveland Center
11:49AM 42.5925 -83.1356 69° East 164 189 5,100  Level Cleveland Center
11:51AM 42.5954 -83.0331 88° East  Level FlightAware Approximate
11:58AM 42.6925 -82.4808 72° East  Level FlightAware Approximate
11:59AM 42.7106 -82.4046 72° East  Level FlightAware Approximate
12:00PM 42.7286 -82.3284 72° East  Level FlightAware Approximate
12:01PM 42.7466 -82.2522 72° East  Level FlightAware Approximate
12:02PM 42.7645 -82.1759 72° East  Level FlightAware Approximate
12:03PM 42.7847 -82.1006 70° East  Level FlightAware Approximate
12:03PM 42.7667 -82.2833 71° East 170 196 5,100  Level Toronto Center
12:04PM 42.8052 -82.0255 70° East  Level FlightAware Approximate
12:04PM 42.7833 -82.2167 71° East 170 196 5,100  Level Toronto Center
12:05PM 42.8253 -81.9501 71° East  Level FlightAware Approximate
12:06PM 42.8448 -81.8745 71° East  Level FlightAware Approximate
12:06PM 42.7930 -82.1492 79° East  Level FlightAware Approximate
12:07PM 42.8596 -81.8172 71° East  Level FlightAware Approximate
12:08PM 42.8744 -81.7598 71° East  Level FlightAware Approximate
12:09PM 42.8891 -81.7025 71° East  Level FlightAware Approximate
12:13PM 42.8675 -81.7363 71° East  Level Estimated
12:14PM 42.8833 -81.6795 69° East  Level FlightAware Approximate
12:15PM 42.8991 -81.6226 69° East  Level FlightAware Approximate
12:16PM 42.9148 -81.5657 69° East  Level FlightAware Approximate
12:17PM 42.9305 -81.5088 69° East  Level FlightAware Approximate
12:18PM 42.9462 -81.4519 69° East  Level FlightAware Approximate
12:18PM 42.9667 -81.3833 79° East 170 196 5,000  Level Toronto Center
12:19PM 42.9619 -81.3949 69° East  Level FlightAware Approximate
12:19PM 42.9833 -81.3500 56° Northeast 170 196 5,000  Level Toronto Center
12:20PM 42.9775 -81.3379 69° East  Level FlightAware Approximate
12:20PM 43.0000 -81.2667 75° East 160 184 5,100  Level Toronto Center
12:21PM 42.9931 -81.2809 69° East  Level FlightAware Approximate
12:21PM 43.0000 -81.2000 90° East 160 184 5,100  Level Toronto Center
12:22PM 43.0087 -81.2238 70° East  Level FlightAware Approximate
12:22PM 43.0167 -81.1667 56° Northeast 160 184 5,100  Level Toronto Center
12:23PM 43.0167 -81.1639 81° East  Level Estimated
12:23PM 43.0167 -81.1000 90° East 160 184 5,100  Level Toronto Center
12:24PM 43.0251 -81.1041 79° East  Level FlightAware Approximate
12:24PM 43.0333 -81.0167 75° East 160 184 5,100  Level Toronto Center
12:25PM 43.0333 -80.9833 90° East 160 184 5,100  Level Toronto Center
12:26PM 43.0500 -80.9167 71° East 160 184 5,100  Level Toronto Center
12:27PM 43.0500 -80.8500 90° East 160 184 5,100  Level Toronto Center
12:28PM 43.0667 -80.8000 65° Northeast 170 196 5,100  Level Toronto Center
12:29PM 43.0833 -80.7333 71° East 170 196 5,100  Level Toronto Center
12:30PM 43.0833 -80.6667 90° East 160 184 5,100  Level Toronto Center
12:31PM 43.0833 -80.6167 90° East 160 184 5,100 -60 Level Toronto Center
12:32PM 43.0833 -80.5500 90° East 160 184 5,000  Descending Toronto Center
12:33PM 43.1000 -80.4833 71° East 170 196 5,100  Climbing Toronto Center
12:34PM 43.1000 -80.4167 90° East 170 196 5,100  Level Toronto Center
12:35PM 43.1000 -80.3667 90° East 160 184 5,100 -120 Level Toronto Center
12:36PM 43.1000 -80.3000 90° East 160 184 4,900 -360 Descending Toronto Center
12:37PM 43.1000 -80.2333 90° East 170 196 4,400 -600 Descending Toronto Center
12:38PM 43.1000 -80.1500 90° East 160 184 3,800 -600 Descending Toronto Center
12:39PM 43.0833 -80.1333 144° Southeast 130 150 3,300 -540 Descending Toronto Center
12:40PM 43.0667 -80.1167 144° Southeast 120 138 2,800 -360 Descending Toronto Center
12:41PM 43.0667 -80.0667 90° East 110 127 2,600 -120 Descending Toronto Center
12:42PM 43.0833 -80.0500 36° Northeast 110 127 2,600 -120 Level Toronto Center
12:43PM 43.1000 -80.0000 65° Northeast 120 138 2,400 -420 Descending Toronto Center
12:44PM 43.1167 -79.9833 36° Northeast 110 127 1,800 -600 Descending Toronto Center
12:45PM 43.1333 -79.9333 65° Northeast 100 115 1,300 -540 Descending Toronto Center
12:46PM 43.1667 -79.9000 36° Northeast 90 104 800 -540 Descending Toronto Center